Portada
METAR-TAF:

METAR-TAF

Aeroports :

Cheraw, Carolina del Sud, Estats Units d'Amèrica

latitud: 34-42-46N, longitud: 079-57-25W, altitud: 73 m

Observació

L'informe es va fer fa 15 minuts, a les 07:15 UTC
Vent 5 kt del Est/Nord-Est
Temperatura 20°C
Humitat 94%
Pressió 1018 hPa
Visibilitat: 16.1 km
Escasses núvols a una alçada de 3900 ft
Cel ennuvolat a una alçada de 5000 ft
Cel cobert a una alçada de 6500 ft

METAR: KCQW 270715Z AUTO 06005KT 10SM FEW039 BKN050 OVC065 20/19 A3005 RMK AO2

Hora: 03:30 (07:30 UTC)


TAF: manca

Observacions i pronòstics meteorològics de més de 4000 aeroports (METAR i TAF).

Les estacions disponibles són els punts grocs i vermells al mapa.

Posi el ratolí al punt desitjat per veure el nom de l'estació.

Feu clic per veure les observacions i els pronòstics meteorològics.

Per canviar el mapa: feu clic els botons verds amb una creu de color negre per apropar; al botó verd amb un guió per allunyar la imatge; o en les fletxes verdes per a mapes adjacents.


METAR-TAF: